Time;durP1;ratioP1;P1;durP2;ratioP2;P2;SDS_P1;SDS_P2;PMS_P1;PMS_P2;Temp;Humidity;BMP_temperature;BMP_pressure;BME280_temperature;BME280_humidity;BME280_pressure;Samples;Min_cycle;Max_cycle;Signal;HPM_P1;HPM_P2
2023/08/06 00:00:41;;;;;;;2.78;1.42;;;23.90;53.40;;;;;;5063141;28;20024;-66
2023/08/06 00:03:07;;;;;;;1.25;1.08;;;23.90;53.40;;;;;;5062188;28;20033;-67
2023/08/06 00:05:33;;;;;;;1.33;1.08;;;23.90;53.40;;;;;;5066736;28;20056;-66
2023/08/06 00:07:59;;;;;;;1.65;1.40;;;23.90;53.50;;;;;;5070733;28;20040;-66
2023/08/06 00:10:24;;;;;;;1.83;1.40;;;23.90;53.50;;;;;;5060128;28;20403;-66
2023/08/06 00:12:50;;;;;;;1.80;1.25;;;23.90;53.50;;;;;;5060727;28;20054;-68
2023/08/06 00:15:16;;;;;;;1.77;1.30;;;23.90;53.50;;;;;;5061135;28;20097;-69
2023/08/06 00:17:42;;;;;;;1.83;1.00;;;23.90;53.50;;;;;;5066666;28;20409;-66
2023/08/06 00:20:08;;;;;;;2.03;1.40;;;23.90;53.50;;;;;;5062402;28;20032;-68
2023/08/06 00:22:35;;;;;;;1.52;1.05;;;23.90;53.50;;;;;;5057667;28;20036;-67
2023/08/06 00:25:02;;;;;;;1.50;1.20;;;23.90;53.60;;;;;;5046189;28;20059;-68
2023/08/06 00:27:28;;;;;;;1.40;1.27;;;23.90;53.60;;;;;;5066977;28;20029;-67
2023/08/06 00:29:54;;;;;;;1.75;1.23;;;23.80;53.50;;;;;;5044896;28;20063;-63
2023/08/06 00:32:20;;;;;;;1.80;1.30;;;23.80;53.60;;;;;;5066540;28;20044;-67
2023/08/06 00:34:46;;;;;;;2.35;1.40;;;23.90;53.70;;;;;;5058321;28;20396;-67
2023/08/06 00:37:13;;;;;;;1.40;1.00;;;23.90;53.70;;;;;;5068802;28;20387;-66
2023/08/06 00:39:39;;;;;;;1.35;1.00;;;23.80;53.70;;;;;;5045919;28;20020;-66
2023/08/06 00:42:05;;;;;;;2.45;1.33;;;23.80;53.70;;;;;;5047197;28;20035;-65
2023/08/06 00:44:31;;;;;;;1.73;1.20;;;23.80;53.70;;;;;;5070428;28;20020;-67
2023/08/06 00:46:57;;;;;;;1.33;1.23;;;23.80;53.80;;;;;;5021771;28;20056;-67
2023/08/06 00:49:23;;;;;;;2.10;1.08;;;23.80;53.80;;;;;;5025262;28;20132;-65
2023/08/06 00:51:50;;;;;;;1.38;1.25;;;23.80;53.80;;;;;;5019675;28;20357;-67
2023/08/06 00:54:16;;;;;;;2.10;1.10;;;23.80;53.90;;;;;;5036445;28;20022;-67
2023/08/06 00:56:42;;;;;;;1.75;1.20;;;23.80;54.50;;;;;;5022984;28;20121;-68
2023/08/06 00:59:10;;;;;;;1.65;1.38;;;23.80;53.90;;;;;;5025151;28;20182;-65
2023/08/06 01:01:36;;;;;;;2.05;1.33;;;23.80;53.90;;;;;;5024525;28;20070;-66
2023/08/06 01:04:02;;;;;;;1.90;1.20;;;23.80;53.90;;;;;;5026012;28;20033;-66
2023/08/06 01:06:52;;;;;;;2.35;1.35;;;23.80;54.10;;;;;;5019270;28;20033;-66
2023/08/06 01:09:42;;;;;;;1.50;1.02;;;23.80;53.90;;;;;;5015040;28;20496;-68
2023/08/06 01:12:21;;;;;;;1.85;1.15;;;23.80;53.90;;;;;;5018719;28;20092;-67
2023/08/06 01:15:08;;;;;;;1.58;1.15;;;23.80;54.00;;;;;;5053470;28;20065;-68
2023/08/06 01:17:35;;;;;;;1.17;1.05;;;23.80;54.00;;;;;;5022654;28;20047;-66
2023/08/06 01:20:01;;;;;;;1.80;1.30;;;23.80;54.10;;;;;;5026823;28;20061;-65
2023/08/06 01:22:28;;;;;;;1.55;1.23;;;23.70;54.00;;;;;;5022445;28;20041;-66
2023/08/06 01:24:55;;;;;;;1.50;1.00;;;23.80;54.10;;;;;;5023497;28;20061;-67
2023/08/06 01:27:40;;;;;;;2.45;1.20;;;23.80;54.20;;;;;;5027519;28;20128;-68
2023/08/06 01:30:16;;;;;;;1.52;1.30;;;23.70;54.20;;;;;;5025378;28;20113;-66
2023/08/06 01:32:48;;;;;;;1.13;1.02;;;23.70;54.20;;;;;;5020504;28;20160;-67
2023/08/06 01:35:17;;;;;;;2.03;1.08;;;23.70;54.20;;;;;;5014319;28;20034;-66
2023/08/06 01:37:43;;;;;;;2.10;1.08;;;23.70;54.20;;;;;;5019612;28;20021;-65
2023/08/06 01:40:13;;;;;;;1.75;1.23;;;23.70;54.30;;;;;;5006975;28;20113;-67
2023/08/06 01:42:40;;;;;;;1.20;1.10;;;23.70;54.30;;;;;;5020646;28;20034;-65
2023/08/06 01:45:08;;;;;;;1.50;1.25;;;23.70;54.30;;;;;;5032507;28;20096;-69
2023/08/06 01:47:34;;;;;;;1.80;1.00;;;23.70;54.30;;;;;;5061994;28;20083;-65
2023/08/06 01:50:00;;;;;;;2.00;1.30;;;23.70;54.40;;;;;;5060549;28;20044;-65
2023/08/06 01:52:27;;;;;;;2.03;1.20;;;23.70;54.40;;;;;;5045734;28;20108;-67
2023/08/06 01:54:52;;;;;;;1.40;1.08;;;23.70;54.40;;;;;;5049628;28;20027;-65
2023/08/06 01:57:18;;;;;;;2.10;1.13;;;23.70;54.50;;;;;;5040067;28;20025;-67
2023/08/06 01:59:44;;;;;;;1.85;1.00;;;23.70;54.50;;;;;;5049791;28;20028;-67
2023/08/06 02:02:10;;;;;;;1.45;1.20;;;23.70;54.50;;;;;;5041745;28;20446;-68
2023/08/06 02:04:36;;;;;;;1.67;1.40;;;23.70;54.50;;;;;;5074026;28;20040;-67
2023/08/06 02:07:02;;;;;;;1.42;1.30;;;23.70;54.50;;;;;;5057563;28;20028;-66
2023/08/06 02:09:28;;;;;;;1.30;1.10;;;23.70;54.50;;;;;;5053089;28;20079;-66
2023/08/06 02:11:54;;;;;;;2.15;1.30;;;23.70;54.50;;;;;;5040887;28;20424;-67
2023/08/06 02:14:19;;;;;;;2.15;1.40;;;23.70;54.60;;;;;;5035661;28;20054;-69
2023/08/06 02:16:45;;;;;;;1.77;1.15;;;23.70;54.60;;;;;;5044292;28;20017;-66
2023/08/06 02:19:11;;;;;;;2.42;1.40;;;23.70;54.60;;;;;;5064646;28;20029;-65
2023/08/06 02:21:37;;;;;;;1.27;1.10;;;23.70;54.60;;;;;;5053356;28;20051;-64
2023/08/06 02:24:03;;;;;;;1.20;1.10;;;23.70;54.60;;;;;;5061273;28;20032;-65
2023/08/06 02:26:29;;;;;;;1.85;1.50;;;23.70;54.70;;;;;;5065960;28;20025;-67
2023/08/06 02:28:55;;;;;;;1.50;1.17;;;23.70;54.70;;;;;;5045781;28;20043;-68
2023/08/06 02:31:21;;;;;;;2.08;1.27;;;23.70;54.70;;;;;;5069316;28;20020;-66
2023/08/06 02:33:47;;;;;;;1.73;1.17;;;23.70;54.70;;;;;;5064525;28;20491;-65
2023/08/06 02:36:13;;;;;;;2.17;1.40;;;23.70;54.70;;;;;;5048861;28;20036;-68
2023/08/06 02:38:39;;;;;;;1.75;1.40;;;23.70;54.70;;;;;;5069536;28;20490;-66
2023/08/06 02:41:05;;;;;;;1.88;1.23;;;23.70;54.80;;;;;;5052720;28;20040;-66
2023/08/06 02:43:31;;;;;;;0.95;0.90;;;23.70;54.80;;;;;;5042014;28;20114;-64
2023/08/06 02:46:01;;;;;;;1.58;1.40;;;23.60;54.80;;;;;;5050741;28;20091;-67
2023/08/06 02:48:27;;;;;;;1.55;1.25;;;23.60;54.80;;;;;;5048249;28;20407;-66
2023/08/06 02:50:53;;;;;;;1.20;1.10;;;23.70;55.00;;;;;;5063156;28;20043;-65
2023/08/06 02:53:19;;;;;;;1.27;1.08;;;23.60;54.90;;;;;;5044453;28;20037;-67
2023/08/06 02:55:47;;;;;;;1.65;1.05;;;23.60;54.90;;;;;;5048323;28;20460;-65
2023/08/06 02:58:16;;;;;;;1.88;1.20;;;23.60;54.90;;;;;;5044156;28;20053;-65
2023/08/06 03:01:05;;;;;;;1.20;1.02;;;23.60;54.90;;;;;;5053699;28;20032;-65
2023/08/06 03:03:38;;;;;;;1.35;0.90;;;23.60;54.90;;;;;;5058998;28;20039;-66
2023/08/06 03:06:05;;;;;;;1.00;0.88;;;23.60;55.00;;;;;;5074622;28;20048;-66
2023/08/06 03:08:38;;;;;;;0.88;0.80;;;23.70;55.10;;;;;;5069065;28;20056;-67
2023/08/06 03:11:04;;;;;;;0.95;0.88;;;23.60;55.00;;;;;;5045640;28;20090;-68
2023/08/06 03:13:31;;;;;;;2.55;1.33;;;23.60;55.10;;;;;;5050679;28;20037;-66
2023/08/06 03:15:59;;;;;;;1.20;1.00;;;23.60;55.10;;;;;;5053833;28;20059;-66
2023/08/06 03:18:26;;;;;;;1.10;1.00;;;23.60;55.70;;;;;;5073006;28;20039;-64
2023/08/06 03:20:53;;;;;;;1.10;0.93;;;23.60;55.10;;;;;;5044055;28;20429;-67
2023/08/06 03:23:19;;;;;;;1.67;1.00;;;23.60;55.10;;;;;;5045000;28;20116;-65
2023/08/06 03:25:46;;;;;;;1.17;0.70;;;23.60;55.20;;;;;;5043802;28;20028;-66
2023/08/06 03:28:13;;;;;;;0.95;0.85;;;23.60;55.20;;;;;;5071256;28;20041;-65
2023/08/06 03:30:39;;;;;;;1.20;1.10;;;23.60;55.20;;;;;;5051974;28;20093;-65
2023/08/06 03:33:06;;;;;;;1.60;1.00;;;23.60;55.20;;;;;;5039560;28;20040;-66
2023/08/06 03:35:32;;;;;;;1.02;0.93;;;23.60;55.20;;;;;;5066359;28;20055;-67
2023/08/06 03:37:59;;;;;;;1.70;1.20;;;23.60;55.20;;;;;;5028810;28;20111;-67
2023/08/06 03:40:27;;;;;;;0.95;0.90;;;23.60;55.20;;;;;;5045682;28;20336;-68
2023/08/06 03:42:53;;;;;;;1.70;1.17;;;23.60;55.20;;;;;;5048585;28;20112;-67
2023/08/06 03:45:19;;;;;;;1.30;0.90;;;23.60;55.20;;;;;;5063502;28;20195;-65
2023/08/06 03:47:45;;;;;;;2.08;1.13;;;23.60;55.20;;;;;;5060039;28;20099;-64
2023/08/06 03:50:12;;;;;;;1.15;1.05;;;23.60;55.20;;;;;;5025499;28;20400;-68
2023/08/06 03:52:38;;;;;;;1.92;0.98;;;23.60;55.30;;;;;;5039852;28;20140;-65
2023/08/06 03:55:05;;;;;;;1.75;1.02;;;23.60;55.30;;;;;;5046100;28;20037;-68
2023/08/06 03:57:31;;;;;;;1.05;0.93;;;23.60;55.30;;;;;;5054536;28;20032;-67
2023/08/06 03:59:57;;;;;;;1.23;1.00;;;23.60;55.30;;;;;;5045759;28;20099;-64
2023/08/06 04:02:25;;;;;;;1.00;0.82;;;23.50;55.20;;;;;;5059252;28;20115;-67
2023/08/06 04:04:53;;;;;;;1.02;0.82;;;23.60;55.30;;;;;;5042084;28;20167;-64
2023/08/06 04:07:19;;;;;;;1.30;1.00;;;23.60;55.30;;;;;;5065969;28;20025;-65
2023/08/06 04:09:57;;;;;;;1.45;1.02;;;23.60;55.30;;;;;;5046738;28;20052;-66
2023/08/06 04:12:23;;;;;;;1.20;0.90;;;23.50;55.30;;;;;;5069605;28;20042;-66
2023/08/06 04:14:51;;;;;;;1.15;1.00;;;23.50;55.30;;;;;;5055833;28;20460;-65
2023/08/06 04:17:20;;;;;;;1.45;0.93;;;23.50;55.30;;;;;;5047424;28;20039;-66
2023/08/06 04:19:49;;;;;;;1.08;0.98;;;23.50;55.30;;;;;;5066396;28;20387;-66
2023/08/06 04:22:15;;;;;;;1.00;0.90;;;23.50;55.40;;;;;;5059721;28;20032;-66
2023/08/06 04:24:40;;;;;;;1.45;1.08;;;23.50;55.40;;;;;;5064898;28;20463;-70
2023/08/06 04:27:07;;;;;;;1.33;0.90;;;23.50;55.40;;;;;;5070617;28;20360;-66
2023/08/06 04:29:33;;;;;;;1.40;1.10;;;23.50;55.40;;;;;;5047633;28;20040;-65
2023/08/06 04:31:59;;;;;;;1.38;1.25;;;23.50;55.40;;;;;;5066709;28;20032;-66
2023/08/06 04:34:26;;;;;;;1.50;1.05;;;23.50;55.40;;;;;;5038989;28;20025;-66
2023/08/06 04:36:52;;;;;;;1.10;1.00;;;23.50;55.40;;;;;;5065126;28;20024;-65
2023/08/06 04:39:18;;;;;;;1.13;0.88;;;23.50;55.50;;;;;;5029741;28;20391;-66
2023/08/06 04:41:44;;;;;;;1.38;1.02;;;23.50;56.10;;;;;;5044239;28;20062;-66
2023/08/06 04:44:10;;;;;;;1.20;0.80;;;23.50;55.50;;;;;;5061074;28;20300;-68
2023/08/06 04:46:36;;;;;;;1.67;1.30;;;23.50;55.50;;;;;;5064125;28;20068;-68
2023/08/06 04:49:01;;;;;;;1.55;1.08;;;23.50;55.50;;;;;;5061982;28;20131;-67
2023/08/06 04:51:27;;;;;;;1.85;1.08;;;23.50;55.50;;;;;;5072769;28;20029;-67
2023/08/06 04:53:53;;;;;;;1.60;1.20;;;23.50;55.50;;;;;;5059707;28;20428;-66
2023/08/06 04:56:19;;;;;;;1.67;1.30;;;23.50;55.50;;;;;;5060154;28;20020;-65
2023/08/06 04:58:45;;;;;;;1.83;1.10;;;23.50;55.50;;;;;;5060384;28;20028;-65
2023/08/06 05:01:11;;;;;;;1.63;1.30;;;23.50;55.50;;;;;;5060995;28;20060;-66
2023/08/06 05:03:37;;;;;;;1.88;1.15;;;23.50;55.50;;;;;;5060260;28;20060;-65
2023/08/06 05:06:03;;;;;;;2.08;1.17;;;23.50;55.50;;;;;;5068931;28;20031;-65
2023/08/06 05:08:28;;;;;;;1.52;1.08;;;23.50;55.60;;;;;;5061711;28;20458;-66
2023/08/06 05:10:54;;;;;;;1.30;1.00;;;23.50;55.60;;;;;;5060999;28;20033;-68
2023/08/06 05:13:20;;;;;;;1.50;1.10;;;23.50;55.60;;;;;;5064434;28;20036;-67
2023/08/06 05:15:46;;;;;;;1.30;1.05;;;23.50;55.60;;;;;;5059904;28;20089;-67
2023/08/06 05:18:12;;;;;;;1.42;1.20;;;23.50;55.60;;;;;;5069052;28;20044;-66
2023/08/06 05:20:41;;;;;;;1.58;1.33;;;23.50;55.60;;;;;;5042684;28;20130;-66
2023/08/06 05:23:07;;;;;;;1.35;1.00;;;23.50;55.60;;;;;;5067732;28;20331;-67
2023/08/06 05:25:40;;;;;;;1.27;1.00;;;23.50;55.70;;;;;;5060834;28;20092;-67
2023/08/06 05:28:06;;;;;;;1.13;1.00;;;23.50;55.70;;;;;;5062106;28;20393;-65
2023/08/06 05:30:31;;;;;;;1.25;1.13;;;23.50;55.70;;;;;;5070822;28;20033;-65
2023/08/06 05:32:57;;;;;;;1.80;1.10;;;23.50;55.70;;;;;;5065587;28;20084;-68
2023/08/06 05:35:23;;;;;;;1.50;1.20;;;23.50;55.70;;;;;;5058350;28;20175;-66
2023/08/06 05:37:53;;;;;;;2.20;1.50;;;23.50;55.70;;;;;;5073869;28;20089;-65
2023/08/06 05:40:19;;;;;;;1.98;1.30;;;23.50;55.80;;;;;;5063568;28;20102;-68
2023/08/06 05:42:45;;;;;;;1.45;1.10;;;23.50;55.80;;;;;;5047744;28;20135;-67
2023/08/06 05:45:10;;;;;;;1.30;1.20;;;23.50;55.80;;;;;;5059985;28;21617;-65
2023/08/06 05:47:36;;;;;;;1.83;1.50;;;23.50;55.80;;;;;;5059774;28;20093;-64
2023/08/06 05:50:02;;;;;;;1.55;1.45;;;23.60;55.80;;;;;;5063049;28;20047;-67
2023/08/06 05:52:28;;;;;;;2.15;1.75;;;23.60;55.90;;;;;;5060356;28;20071;-68
2023/08/06 05:54:55;;;;;;;1.52;1.42;;;23.60;55.90;;;;;;5041479;28;20834;-65
2023/08/06 05:57:21;;;;;;;1.80;1.60;;;23.60;55.90;;;;;;5064345;28;20040;-64
2023/08/06 05:59:47;;;;;;;3.10;2.10;;;23.50;55.80;;;;;;5043719;28;20032;-66
2023/08/06 06:02:13;;;;;;;1.92;1.52;;;23.60;55.90;;;;;;5041961;28;20036;-65
2023/08/06 06:04:40;;;;;;;2.35;2.15;;;23.60;56.00;;;;;;5070482;28;20040;-67
2023/08/06 06:07:06;;;;;;;2.58;1.95;;;23.60;55.90;;;;;;5067215;28;20036;-66
2023/08/06 06:09:32;;;;;;;2.10;1.80;;;23.60;55.90;;;;;;5045955;28;20101;-66
2023/08/06 06:11:58;;;;;;;2.15;1.95;;;23.60;55.90;;;;;;5064544;28;20155;-67
2023/08/06 06:14:24;;;;;;;3.92;2.20;;;23.60;55.90;;;;;;5041429;28;20029;-67
2023/08/06 06:16:50;;;;;;;3.42;2.33;;;23.60;56.00;;;;;;5045425;28;20123;-67
2023/08/06 06:19:15;;;;;;;1.90;1.80;;;23.60;55.90;;;;;;5067500;28;20398;-66
2023/08/06 06:21:41;;;;;;;2.30;2.08;;;23.60;55.90;;;;;;5073287;28;20028;-66
2023/08/06 06:24:08;;;;;;;2.60;2.38;;;23.60;56.00;;;;;;5066221;28;20125;-65
2023/08/06 06:26:33;;;;;;;2.97;2.40;;;23.60;55.90;;;;;;5063538;28;20066;-64
2023/08/06 06:28:59;;;;;;;2.50;2.30;;;23.60;55.90;;;;;;5068355;28;20067;-66
2023/08/06 06:31:27;;;;;;;2.30;2.10;;;23.60;56.00;;;;;;5064243;28;20406;-65
2023/08/06 06:33:54;;;;;;;2.08;1.88;;;23.60;55.90;;;;;;5043883;28;20029;-66
2023/08/06 06:36:20;;;;;;;2.50;2.30;;;23.60;55.90;;;;;;5062041;28;20399;-65
2023/08/06 06:38:46;;;;;;;2.08;1.90;;;23.60;55.90;;;;;;5070661;28;20020;-67
2023/08/06 06:41:12;;;;;;;2.40;2.20;;;23.60;55.90;;;;;;5071080;28;20114;-64
2023/08/06 06:43:39;;;;;;;2.25;2.05;;;23.60;55.90;;;;;;5059621;28;20144;-67
2023/08/06 06:46:05;;;;;;;2.78;2.25;;;23.60;55.90;;;;;;5059885;28;20048;-67
2023/08/06 06:48:33;;;;;;;2.50;2.20;;;23.60;55.90;;;;;;5062850;28;20418;-67
2023/08/06 06:50:59;;;;;;;2.42;2.22;;;23.60;55.90;;;;;;5063267;28;20040;-67
2023/08/06 06:53:27;;;;;;;2.42;2.13;;;23.60;55.90;;;;;;5065826;28;20123;-66
2023/08/06 06:56:03;;;;;;;2.55;2.30;;;23.60;55.90;;;;;;5068928;28;20059;-67
2023/08/06 06:58:29;;;;;;;2.53;2.10;;;23.60;55.90;;;;;;5073707;28;20032;-65
2023/08/06 07:00:54;;;;;;;2.10;1.90;;;23.60;55.90;;;;;;5086223;28;20446;-67
2023/08/06 07:03:20;;;;;;;2.35;2.15;;;23.60;55.90;;;;;;5074020;28;20035;-65
2023/08/06 07:05:47;;;;;;;2.20;2.00;;;23.60;55.90;;;;;;5081439;28;20438;-64
2023/08/06 07:08:13;;;;;;;2.38;2.00;;;23.60;56.00;;;;;;5057209;28;20127;-67
2023/08/06 07:10:41;;;;;;;2.13;1.92;;;23.60;56.10;;;;;;5086539;28;20124;-64
2023/08/06 07:13:08;;;;;;;1.85;1.67;;;23.60;56.20;;;;;;5075874;28;20086;-67
2023/08/06 07:15:35;;;;;;;1.73;1.63;;;23.60;56.20;;;;;;5071872;28;20031;-66
2023/08/06 07:18:01;;;;;;;1.90;1.80;;;23.60;56.20;;;;;;5074812;28;20041;-66
2023/08/06 07:20:31;;;;;;;2.28;2.03;;;23.60;56.20;;;;;;5076467;28;20454;-65
2023/08/06 07:22:58;;;;;;;2.25;2.00;;;23.60;56.20;;;;;;5060185;28;20188;-65
2023/08/06 07:25:24;;;;;;;2.20;2.00;;;23.60;56.20;;;;;;5065745;28;20337;-66
2023/08/06 07:27:51;;;;;;;2.00;1.80;;;23.70;56.30;;;;;;5067503;28;20100;-68
2023/08/06 07:30:18;;;;;;;2.72;2.00;;;23.60;56.20;;;;;;5075171;28;20115;-67
2023/08/06 07:32:45;;;;;;;2.03;1.83;;;23.60;56.10;;;;;;5070998;28;20033;-68
2023/08/06 07:35:14;;;;;;;2.10;1.90;;;23.60;56.10;;;;;;5056308;28;20056;-66
2023/08/06 07:37:40;;;;;;;2.05;1.77;;;23.70;56.10;;;;;;5034201;28;20055;-66
2023/08/06 07:40:07;;;;;;;1.98;1.73;;;23.60;56.10;;;;;;5055643;28;20032;-65
2023/08/06 07:42:33;;;;;;;2.00;1.80;;;23.70;56.10;;;;;;5071763;28;20074;-63
2023/08/06 07:45:01;;;;;;;2.20;1.90;;;23.70;56.20;;;;;;5074710;28;20081;-67
2023/08/06 07:47:27;;;;;;;3.25;2.00;;;23.70;56.30;;;;;;5066943;28;20028;-63
2023/08/06 07:49:53;;;;;;;1.90;1.70;;;23.70;56.30;;;;;;5077754;28;20288;-65
2023/08/06 07:52:19;;;;;;;2.03;1.80;;;23.70;56.40;;;;;;5070310;28;20308;-65
2023/08/06 07:54:45;;;;;;;2.10;1.90;;;23.70;56.50;;;;;;5072167;28;20132;-65
2023/08/06 07:57:11;;;;;;;7.60;2.13;;;23.70;56.60;;;;;;5061940;28;20028;-63
2023/08/06 07:59:37;;;;;;;2.63;2.20;;;23.70;56.70;;;;;;5070249;28;20036;-62
2023/08/06 08:02:04;;;;;;;3.88;2.30;;;23.70;56.70;;;;;;5038668;28;20028;-64
2023/08/06 08:04:29;;;;;;;2.85;1.95;;;23.70;56.80;;;;;;5047494;28;20039;-64
2023/08/06 08:06:55;;;;;;;2.55;2.00;;;23.70;56.80;;;;;;5056308;28;20335;-64
2023/08/06 08:09:21;;;;;;;1.83;1.73;;;23.80;56.90;;;;;;5072778;28;20040;-63
2023/08/06 08:11:47;;;;;;;2.15;1.92;;;23.80;57.40;;;;;;5062599;28;20137;-66
2023/08/06 08:14:13;;;;;;;2.00;1.80;;;23.80;56.70;;;;;;5056435;28;20038;-66
2023/08/06 08:16:39;;;;;;;2.58;2.17;;;23.80;56.70;;;;;;5058567;28;20024;-64
2023/08/06 08:19:05;;;;;;;3.67;2.00;;;23.80;56.70;;;;;;5058027;28;20125;-66
2023/08/06 08:21:31;;;;;;;3.10;1.90;;;23.80;56.70;;;;;;5081782;28;20024;-63
2023/08/06 08:24:00;;;;;;;1.65;1.55;;;23.80;56.70;;;;;;5061432;28;20043;-67
2023/08/06 08:26:27;;;;;;;2.17;1.98;;;23.80;56.60;;;;;;5065788;28;20039;-66
2023/08/06 08:28:53;;;;;;;1.98;1.75;;;23.80;56.60;;;;;;5064008;28;20197;-62
2023/08/06 08:31:19;;;;;;;1.80;1.70;;;23.80;56.50;;;;;;5068178;28;20423;-64
2023/08/06 08:33:45;;;;;;;5.68;1.85;;;23.80;56.50;;;;;;5060024;28;20041;-64
2023/08/06 08:36:11;;;;;;;1.65;1.50;;;23.80;56.40;;;;;;5062346;28;20115;-63
2023/08/06 08:38:37;;;;;;;2.30;1.60;;;23.80;55.70;;;;;;5069179;28;20028;-65
2023/08/06 08:41:03;;;;;;;1.73;1.40;;;23.80;55.10;;;;;;5062237;28;20027;-63
2023/08/06 08:43:29;;;;;;;1.60;1.40;;;23.80;54.70;;;;;;5068187;28;20305;-65
2023/08/06 08:46:01;;;;;;;2.10;1.50;;;23.80;54.50;;;;;;5059833;28;20047;-63
2023/08/06 08:48:27;;;;;;;1.60;1.40;;;23.80;54.50;;;;;;5052391;28;20066;-63
2023/08/06 08:50:55;;;;;;;2.15;1.73;;;23.80;54.40;;;;;;5065951;28;20048;-67
2023/08/06 08:53:22;;;;;;;1.85;1.70;;;23.70;54.30;;;;;;5071109;28;20025;-61
2023/08/06 08:55:49;;;;;;;1.65;1.50;;;23.80;54.30;;;;;;5066480;28;20051;-67
2023/08/06 08:58:15;;;;;;;2.00;1.75;;;23.70;54.50;;;;;;5065746;28;20325;-60
2023/08/06 09:00:48;;;;;;;2.10;1.70;;;23.80;55.00;;;;;;5068126;28;20025;-61
2023/08/06 09:03:15;;;;;;;2.38;1.90;;;23.80;55.40;;;;;;5061314;28;20028;-64
2023/08/06 09:05:44;;;;;;;2.35;1.92;;;23.80;55.70;;;;;;5059032;28;20063;-62
2023/08/06 09:08:16;;;;;;;3.03;2.10;;;23.80;55.90;;;;;;5068764;28;20024;-62
2023/08/06 09:10:43;;;;;;;2.28;1.70;;;23.90;56.10;;;;;;5055163;28;20705;-65
2023/08/06 09:13:09;;;;;;;2.85;2.10;;;23.90;56.30;;;;;;5068324;28;20025;-62
2023/08/06 09:15:35;;;;;;;1.85;1.70;;;23.90;56.40;;;;;;5067263;28;20036;-63
2023/08/06 09:18:10;;;;;;;2.20;2.00;;;23.90;56.50;;;;;;5064241;28;20346;-64
2023/08/06 09:20:38;;;;;;;2.05;1.85;;;24.00;56.70;;;;;;5069680;28;20400;-65
2023/08/06 09:23:10;;;;;;;3.35;2.20;;;24.00;56.80;;;;;;5051757;28;20217;-66
2023/08/06 09:25:41;;;;;;;79.43;29.88;;;24.00;56.80;;;;;;5048534;28;20032;-66
2023/08/06 09:28:08;;;;;;;71.78;30.70;;;24.00;57.40;;;;;;5077801;28;20412;-65
2023/08/06 09:30:36;;;;;;;62.75;27.20;;;24.00;58.00;;;;;;5063980;28;20135;-64
2023/08/06 09:33:02;;;;;;;53.42;22.33;;;24.00;58.60;;;;;;5079485;28;20093;-65
2023/08/06 09:35:31;;;;;;;40.97;19.73;;;24.00;59.30;;;;;;5053271;28;20027;-64
2023/08/06 09:38:09;;;;;;;34.40;16.63;;;24.10;59.90;;;;;;5071513;28;20043;-64
2023/08/06 09:40:35;;;;;;;16.35;9.43;;;24.10;60.30;;;;;;5074556;28;21666;-64
2023/08/06 09:43:02;;;;;;;15.43;8.00;;;24.10;59.50;;;;;;5079761;28;20021;-66
2023/08/06 09:45:46;;;;;;;14.05;7.10;;;24.10;58.90;;;;;;5077694;28;20040;-64
2023/08/06 09:48:12;;;;;;;17.08;7.25;;;24.10;58.90;;;;;;5055132;28;20043;-64
2023/08/06 09:50:39;;;;;;;23.38;9.80;;;24.10;59.20;;;;;;5064348;28;20036;-66
2023/08/06 09:53:06;;;;;;;29.00;11.60;;;24.10;59.60;;;;;;5075424;28;20032;-65
2023/08/06 09:55:33;;;;;;;23.88;12.30;;;24.10;60.20;;;;;;5046362;28;20033;-63
2023/08/06 09:57:59;;;;;;;25.00;12.57;;;24.10;61.00;;;;;;5074320;28;20107;-65
2023/08/06 10:00:26;;;;;;;23.30;11.77;;;24.10;61.50;;;;;;5069681;28;20056;-66
2023/08/06 10:02:55;;;;;;;24.95;12.15;;;24.20;62.10;;;;;;5066131;28;20032;-63
2023/08/06 10:05:23;;;;;;;21.48;11.18;;;24.10;62.40;;;;;;5067679;28;20032;-62
2023/08/06 10:07:53;;;;;;;23.60;11.90;;;24.20;62.80;;;;;;5068993;28;20097;-63
2023/08/06 10:10:22;;;;;;;21.80;10.65;;;24.20;62.90;;;;;;5085645;28;20078;-64
2023/08/06 10:12:54;;;;;;;19.30;9.70;;;24.20;62.70;;;;;;5074964;28;20054;-63
2023/08/06 10:15:31;;;;;;;17.13;9.45;;;24.20;62.30;;;;;;5070640;28;20016;-61
2023/08/06 10:17:59;;;;;;;16.60;9.05;;;24.20;62.10;;;;;;5068053;28;20100;-64
2023/08/06 10:20:25;;;;;;;15.77;9.05;;;24.20;62.10;;;;;;5072203;28;20115;-65
2023/08/06 10:23:05;;;;;;;12.20;7.20;;;24.20;61.80;;;;;;5060391;28;20090;-65
2023/08/06 10:25:33;;;;;;;14.25;7.63;;;24.20;61.30;;;;;;5049188;28;20084;-65
2023/08/06 10:28:00;;;;;;;13.00;7.38;;;24.20;60.90;;;;;;5049015;28;20047;-65
2023/08/06 10:30:30;;;;;;;11.18;6.50;;;24.20;60.50;;;;;;5071442;28;20024;-65
2023/08/06 10:33:00;;;;;;;11.73;5.78;;;24.20;60.20;;;;;;5074561;28;20478;-65
2023/08/06 10:35:49;;;;;;;8.50;5.07;;;24.20;59.90;;;;;;5077423;28;20058;-65
2023/08/06 10:38:16;;;;;;;9.45;5.18;;;24.20;59.60;;;;;;5078362;28;20032;-65
2023/08/06 10:40:52;;;;;;;7.40;4.63;;;24.20;59.50;;;;;;5070549;28;20416;-66
2023/08/06 10:43:29;;;;;;;7.70;4.70;;;24.20;59.30;;;;;;5067715;28;20024;-65
2023/08/06 10:45:57;;;;;;;6.00;4.10;;;24.20;59.10;;;;;;5066022;28;20161;-65
2023/08/06 10:48:36;;;;;;;7.40;3.50;;;24.20;58.90;;;;;;5073416;28;20036;-69
2023/08/06 10:51:04;;;;;;;5.38;3.55;;;24.20;58.60;;;;;;5074405;28;20301;-68
2023/08/06 10:53:30;;;;;;;7.05;3.40;;;24.20;58.40;;;;;;5050883;28;20042;-66
2023/08/06 10:55:56;;;;;;;5.90;3.20;;;24.20;58.20;;;;;;5072467;28;20040;-68
2023/08/06 10:58:22;;;;;;;5.22;3.17;;;24.10;58.00;;;;;;5068948;28;20715;-65
2023/08/06 11:00:48;;;;;;;5.32;2.88;;;24.20;57.90;;;;;;5068865;28;20020;-65
2023/08/06 11:03:14;;;;;;;5.28;3.05;;;24.10;57.60;;;;;;5066107;28;20905;-68
2023/08/06 11:05:40;;;;;;;4.47;2.47;;;24.10;57.40;;;;;;5065502;28;20113;-65
2023/08/06 11:08:06;;;;;;;4.05;2.38;;;24.10;57.30;;;;;;5069460;28;20182;-69
2023/08/06 11:10:35;;;;;;;4.25;2.58;;;24.10;57.20;;;;;;5068086;28;20028;-67
2023/08/06 11:13:03;;;;;;;4.15;2.42;;;24.10;57.00;;;;;;5070785;28;20024;-68
2023/08/06 11:15:31;;;;;;;3.00;1.90;;;24.10;56.90;;;;;;5068144;28;20021;-66
2023/08/06 11:17:57;;;;;;;3.22;1.90;;;24.10;56.80;;;;;;5060629;28;20459;-67
2023/08/06 11:20:24;;;;;;;2.38;1.80;;;24.10;56.70;;;;;;5064687;28;20032;-66
2023/08/06 11:22:50;;;;;;;4.07;2.28;;;24.10;56.60;;;;;;5063599;28;20032;-67
2023/08/06 11:25:20;;;;;;;3.03;1.85;;;24.10;56.50;;;;;;5069955;28;20020;-69
2023/08/06 11:27:46;;;;;;;2.55;1.70;;;24.10;57.00;;;;;;5064522;28;20162;-67
2023/08/06 11:30:12;;;;;;;3.22;1.90;;;24.10;56.30;;;;;;5053099;28;20055;-67
2023/08/06 11:32:48;;;;;;;3.15;1.80;;;24.10;56.20;;;;;;5078266;28;20032;-67
2023/08/06 11:35:16;;;;;;;2.28;1.40;;;24.10;56.30;;;;;;5065322;28;20702;-67
2023/08/06 11:37:46;;;;;;;2.15;1.40;;;24.10;56.00;;;;;;5042335;28;20032;-67
2023/08/06 11:40:14;;;;;;;1.67;1.40;;;24.00;55.90;;;;;;5039127;28;20044;-67
2023/08/06 11:42:40;;;;;;;1.90;1.23;;;24.10;55.90;;;;;;5065844;28;20419;-68
2023/08/06 11:45:08;;;;;;;2.22;1.25;;;24.00;55.70;;;;;;5062856;28;20108;-66
2023/08/06 11:47:37;;;;;;;3.00;1.75;;;24.00;55.70;;;;;;5047534;28;20079;-68
2023/08/06 11:50:04;;;;;;;2.67;1.55;;;24.10;55.70;;;;;;5060948;28;20044;-67
2023/08/06 11:52:31;;;;;;;2.60;1.30;;;24.00;55.60;;;;;;5062495;28;20082;-66
2023/08/06 11:55:10;;;;;;;1.40;1.08;;;24.00;55.60;;;;;;5064979;28;20049;-67
2023/08/06 11:57:39;;;;;;;2.00;1.52;;;24.00;55.60;;;;;;5064716;28;20052;-66
2023/08/06 12:00:13;;;;;;;1.80;1.20;;;24.00;55.50;;;;;;5064456;28;20043;-66
2023/08/06 12:02:42;;;;;;;1.67;1.20;;;24.00;55.50;;;;;;5057900;28;20029;-69
2023/08/06 12:05:15;;;;;;;1.50;0.98;;;24.00;55.50;;;;;;5062178;28;20057;-67
2023/08/06 12:07:48;;;;;;;1.10;0.90;;;24.00;55.40;;;;;;5068308;28;20328;-66
2023/08/06 12:10:15;;;;;;;1.42;1.13;;;24.00;55.40;;;;;;5071513;28;20130;-66
2023/08/06 12:12:41;;;;;;;1.95;1.08;;;24.00;55.40;;;;;;5075744;28;20032;-66
2023/08/06 12:15:09;;;;;;;1.45;1.10;;;24.00;55.30;;;;;;5076527;28;20031;-65
2023/08/06 12:17:35;;;;;;;2.53;1.10;;;24.00;55.30;;;;;;5072436;28;20028;-66
2023/08/06 12:20:04;;;;;;;2.15;1.08;;;24.00;55.40;;;;;;5080092;28;20027;-66
2023/08/06 12:22:38;;;;;;;1.88;1.42;;;24.00;55.40;;;;;;5084411;28;20060;-64
2023/08/06 12:25:08;;;;;;;2.00;1.20;;;24.00;55.50;;;;;;5086248;28;20284;-64
2023/08/06 12:27:40;;;;;;;1.85;1.30;;;24.00;55.60;;;;;;5083742;28;20024;-64
2023/08/06 12:30:07;;;;;;;2.38;1.40;;;24.00;55.70;;;;;;5075155;28;20461;-65
2023/08/06 12:32:33;;;;;;;2.13;1.30;;;24.00;55.80;;;;;;5061862;28;20040;-64
2023/08/06 12:35:00;;;;;;;3.70;1.40;;;24.00;55.90;;;;;;5072729;28;20123;-63
2023/08/06 12:37:27;;;;;;;3.50;1.60;;;24.00;55.90;;;;;;5067745;28;20043;-63
2023/08/06 12:39:53;;;;;;;2.13;1.45;;;24.00;55.90;;;;;;5063540;28;20020;-67
2023/08/06 12:42:19;;;;;;;2.60;1.20;;;24.10;55.90;;;;;;5072841;28;20039;-65
2023/08/06 12:44:45;;;;;;;1.83;1.15;;;24.00;55.90;;;;;;5068803;28;20043;-67
2023/08/06 12:47:10;;;;;;;1.88;0.90;;;24.10;55.90;;;;;;5065638;28;20025;-66